Time;durP1;ratioP1;P1;durP2;ratioP2;P2;SDS_P1;SDS_P2;PMS_P1;PMS_P2;Temp;Humidity;BMP_temperature;BMP_pressure;BME280_temperature;BME280_humidity;BME280_pressure;Samples;Min_cycle;Max_cycle;Signal;HPM_P1;HPM_P2
2023/01/14 00:02:02;;;;;;;7.07;4.47;;;6.50;70.10;;;;;;4930177;28;114629;-84
2023/01/14 00:04:30;;;;;;;6.40;4.35;;;6.60;70.00;;;;;;4926662;28;114719;-83
2023/01/14 00:06:57;;;;;;;6.63;4.25;;;6.50;69.80;;;;;;4947627;28;114625;-83
2023/01/14 00:09:27;;;;;;;7.78;4.25;;;6.50;69.90;;;;;;4930240;28;115191;-83
2023/01/14 00:11:54;;;;;;;8.15;4.15;;;6.50;70.00;;;;;;4946995;28;114624;-83
2023/01/14 00:14:24;;;;;;;7.05;4.10;;;6.50;69.90;;;;;;4947963;28;114572;-84
2023/01/14 00:16:52;;;;;;;5.80;3.65;;;6.40;69.80;;;;;;4928183;28;114534;-84
2023/01/14 00:19:20;;;;;;;7.60;3.63;;;6.50;69.70;;;;;;4914251;28;118218;-84
2023/01/14 00:21:50;;;;;;;7.55;3.80;;;6.40;69.80;;;;;;4930760;28;116250;-84
2023/01/14 00:24:19;;;;;;;6.85;3.55;;;6.50;69.70;;;;;;4922385;28;114510;-85
2023/01/14 00:27:17;;;;;;;7.18;4.40;;;6.40;69.60;;;;;;4911633;28;114729;-85
2023/01/14 00:29:45;;;;;;;6.43;4.20;;;6.50;69.50;;;;;;4866555;28;116617;-85
2023/01/14 00:32:12;;;;;;;5.38;3.63;;;6.50;69.60;;;;;;4910418;28;114856;-85
2023/01/14 00:34:39;;;;;;;5.55;3.72;;;6.50;69.50;;;;;;4897107;28;114919;-85
2023/01/14 00:37:08;;;;;;;5.85;3.90;;;6.50;69.30;;;;;;4935224;28;114493;-85
2023/01/14 00:39:37;;;;;;;7.05;4.35;;;6.60;69.20;;;;;;4912956;28;115758;-85
2023/01/14 00:42:04;;;;;;;6.70;3.92;;;6.50;69.00;;;;;;4916943;28;114802;-84
2023/01/14 00:44:38;;;;;;;8.50;3.97;;;6.60;69.00;;;;;;4906221;28;114956;-85
2023/01/14 00:47:20;;;;;;;6.90;3.85;;;6.50;69.00;;;;;;4947415;28;114518;-84
2023/01/14 00:49:47;;;;;;;6.57;4.13;;;6.50;68.90;;;;;;4929133;28;115299;-83
2023/01/14 00:52:14;;;;;;;6.57;3.70;;;6.50;68.80;;;;;;4926475;28;114654;-84
2023/01/14 00:54:41;;;;;;;5.70;3.88;;;6.40;68.80;;;;;;4926363;28;114540;-84
2023/01/14 00:57:09;;;;;;;6.32;3.30;;;6.40;68.80;;;;;;4927294;28;114856;-84
2023/01/14 00:59:38;;;;;;;6.10;3.95;;;6.40;68.70;;;;;;4893955;28;115261;-85
2023/01/14 01:02:07;;;;;;;6.22;3.47;;;6.40;68.60;;;;;;4927670;28;114928;-84
2023/01/14 01:04:34;;;;;;;5.88;3.13;;;6.40;68.80;;;;;;4911650;28;114602;-84
2023/01/14 01:07:03;;;;;;;6.45;3.17;;;6.40;68.60;;;;;;4930609;28;114502;-84
2023/01/14 01:09:30;;;;;;;6.72;3.17;;;6.40;68.50;;;;;;4929214;28;115137;-83
2023/01/14 01:11:57;;;;;;;5.47;3.25;;;6.40;68.50;;;;;;4895849;28;114924;-84
2023/01/14 01:14:24;;;;;;;6.05;3.20;;;6.40;68.60;;;;;;4946151;28;114804;-84
2023/01/14 01:16:52;;;;;;;6.72;4.15;;;6.40;68.60;;;;;;4947578;28;115634;-85
2023/01/14 01:19:19;;;;;;;7.97;3.70;;;6.40;68.50;;;;;;4928784;28;115134;-85
2023/01/14 01:21:47;;;;;;;7.32;3.63;;;6.40;68.50;;;;;;4946216;28;114826;-84
2023/01/14 01:24:14;;;;;;;7.13;3.67;;;6.40;68.40;;;;;;4914260;28;114510;-84
2023/01/14 01:26:41;;;;;;;8.40;3.45;;;6.40;68.20;;;;;;4913049;28;114687;-85
2023/01/14 01:29:08;;;;;;;7.10;3.42;;;6.40;68.10;;;;;;4928848;28;115114;-84
2023/01/14 01:31:36;;;;;;;7.13;3.60;;;6.40;68.10;;;;;;4912864;28;114988;-85
2023/01/14 01:34:03;;;;;;;10.77;5.60;;;6.30;68.00;;;;;;4947414;28;115366;-84
2023/01/14 01:36:30;;;;;;;7.22;3.67;;;6.30;68.00;;;;;;4947315;28;114697;-84
2023/01/14 01:38:58;;;;;;;6.32;3.40;;;6.30;68.20;;;;;;4928961;28;115171;-84
2023/01/14 01:41:30;;;;;;;8.93;4.03;;;6.30;68.20;;;;;;4945991;28;114680;-84
2023/01/14 01:44:08;;;;;;;7.10;4.25;;;6.30;68.00;;;;;;4910637;28;114631;-84
2023/01/14 01:46:36;;;;;;;8.15;4.68;;;6.30;68.00;;;;;;4925065;28;114422;-84
2023/01/14 01:49:11;;;;;;;9.65;4.93;;;6.20;68.00;;;;;;4903027;28;115127;-84
2023/01/14 01:51:59;;;;;;;7.03;4.55;;;6.20;68.00;;;;;;4924282;28;115160;-84
2023/01/14 01:54:32;;;;;;;10.38;5.22;;;6.20;68.10;;;;;;4919861;28;114703;-83
2023/01/14 01:57:00;;;;;;;8.30;4.60;;;6.00;68.00;;;;;;4924973;28;114600;-83
2023/01/14 01:59:37;;;;;;;11.07;4.97;;;6.00;67.90;;;;;;4909368;28;115563;-84
2023/01/14 02:02:04;;;;;;;9.65;4.60;;;6.00;68.00;;;;;;4925699;28;115314;-84
2023/01/14 02:04:31;;;;;;;9.55;5.25;;;5.90;68.30;;;;;;4927131;28;115325;-84
2023/01/14 02:06:59;;;;;;;7.95;4.97;;;5.90;68.30;;;;;;4925212;28;114666;-83
2023/01/14 02:09:27;;;;;;;8.20;4.88;;;5.90;68.20;;;;;;4928135;28;115142;-83
2023/01/14 02:12:17;;;;;;;9.25;4.90;;;5.80;68.10;;;;;;4925542;28;114673;-84
2023/01/14 02:15:03;;;;;;;8.13;4.85;;;5.90;68.20;;;;;;4944023;28;114530;-85
2023/01/14 02:17:45;;;;;;;9.50;4.60;;;5.80;68.10;;;;;;4946799;28;114884;-84
2023/01/14 02:20:59;;;;;;;9.98;4.43;;;5.70;68.20;;;;;;4943309;28;115015;-85
2023/01/14 02:23:50;;;;;;;10.80;4.50;;;5.70;68.10;;;;;;4933799;28;114640;-84
2023/01/14 02:26:43;;;;;;;7.18;4.90;;;5.60;68.40;;;;;;4938427;28;114286;-84
2023/01/14 02:30:01;;;;;;;7.60;5.05;;;5.60;68.40;;;;;;4916686;28;117357;-84
2023/01/14 02:32:49;;;;;;;5.95;4.03;;;5.60;68.30;;;;;;4938128;28;115412;-86
2023/01/14 02:35:25;;;;;;;8.05;4.22;;;5.50;68.50;;;;;;4922786;28;114891;-84
2023/01/14 02:38:25;;;;;;;7.43;4.07;;;5.50;68.50;;;;;;4927450;28;114681;-83
2023/01/14 02:44:06;;;;;;;6.45;3.90;;;5.50;68.50;;;;;;4911320;28;114710;-83
2023/01/14 02:44:14;;;;;;;13.38;7.53;;;5.50;68.60;;;;;;4917691;28;115216;-85
2023/01/14 02:46:51;;;;;;;17.80;9.88;;;5.40;68.50;;;;;;4908463;28;115416;-84
2023/01/14 02:49:41;;;;;;;18.83;9.95;;;5.50;68.50;;;;;;4925340;28;114669;-85
2023/01/14 02:52:11;;;;;;;18.70;9.50;;;5.50;68.30;;;;;;4895490;28;114714;-85
2023/01/14 02:54:39;;;;;;;18.45;9.95;;;5.40;68.50;;;;;;4932262;28;115828;-84
2023/01/14 02:57:27;;;;;;;21.08;11.70;;;5.40;68.70;;;;;;4948816;28;114366;-85
2023/01/14 03:00:06;;;;;;;19.65;11.25;;;5.40;68.80;;;;;;4922589;28;114726;-85
2023/01/14 03:02:49;;;;;;;19.08;10.13;;;5.40;68.80;;;;;;4908095;28;114651;-85
2023/01/14 03:05:40;;;;;;;18.27;8.73;;;5.30;69.00;;;;;;4887267;28;119556;-84
2023/01/14 03:08:56;;;;;;;15.80;7.90;;;5.40;68.90;;;;;;4928747;28;114667;-86
2023/01/14 03:11:34;;;;;;;14.02;7.88;;;5.30;68.80;;;;;;4904597;28;114696;-85
2023/01/14 03:14:03;;;;;;;13.60;6.95;;;5.30;69.10;;;;;;4941861;28;114626;-85
2023/01/14 03:16:40;;;;;;;11.65;7.20;;;5.30;69.10;;;;;;4908264;28;115148;-85
2023/01/14 03:19:28;;;;;;;14.80;6.78;;;5.30;69.20;;;;;;4926676;28;114829;-85
2023/01/14 03:21:56;;;;;;;12.77;6.97;;;5.30;69.00;;;;;;4928205;28;114972;-85
2023/01/14 03:24:44;;;;;;;11.65;5.93;;;5.20;69.00;;;;;;4911824;28;114630;-85
2023/01/14 03:27:23;;;;;;;10.60;6.55;;;5.30;69.00;;;;;;4919719;28;115369;-84
2023/01/14 03:30:01;;;;;;;13.85;6.82;;;5.30;69.30;;;;;;4915157;28;114807;-83
2023/01/14 03:32:34;;;;;;;13.55;7.20;;;5.20;69.20;;;;;;4916342;28;115010;-84
2023/01/14 03:35:11;;;;;;;9.40;5.75;;;5.20;69.20;;;;;;4899585;28;114815;-83
2023/01/14 03:37:41;;;;;;;8.70;5.15;;;5.30;69.30;;;;;;4899302;28;116394;-85
2023/01/14 03:40:11;;;;;;;13.20;6.00;;;5.20;69.20;;;;;;4931153;28;115121;-84
2023/01/14 03:42:50;;;;;;;11.13;5.80;;;5.30;69.40;;;;;;4931965;28;114757;-85
2023/01/14 03:45:33;;;;;;;9.27;5.07;;;5.40;69.30;;;;;;4916177;28;114920;-84
2023/01/14 03:48:00;;;;;;;10.00;5.30;;;5.40;69.30;;;;;;4927115;28;115743;-85
2023/01/14 03:51:08;;;;;;;10.75;6.38;;;5.40;69.30;;;;;;4931059;28;114751;-84
2023/01/14 03:54:02;;;;;;;13.20;6.78;;;5.40;69.20;;;;;;4935924;28;114894;-84
2023/01/14 03:57:02;;;;;;;12.52;7.00;;;5.40;69.10;;;;;;4931598;28;114873;-84
2023/01/14 03:59:46;;;;;;;10.85;6.22;;;5.40;69.10;;;;;;4916804;28;116483;-84
2023/01/14 04:02:13;;;;;;;11.40;6.63;;;5.40;69.20;;;;;;4930482;28;114715;-84
2023/01/14 04:04:42;;;;;;;11.10;7.00;;;5.40;69.30;;;;;;4928202;28;116363;-84
2023/01/14 04:07:10;;;;;;;10.85;7.03;;;5.40;69.40;;;;;;4892710;28;114480;-85
2023/01/14 04:09:46;;;;;;;14.38;7.43;;;5.40;69.40;;;;;;4936084;28;115703;-88
2023/01/14 04:12:13;;;;;;;11.93;6.80;;;5.50;69.30;;;;;;4931826;28;114346;-85
2023/01/14 04:17:26;;;;;;;11.48;7.07;;;5.40;69.40;;;;;;4922204;28;114558;-84
2023/01/14 04:19:53;;;;;;;11.13;6.78;;;5.40;69.40;;;;;;4945619;28;115099;-84
2023/01/14 04:22:22;;;;;;;10.35;6.75;;;5.40;69.40;;;;;;4946715;28;115247;-84
2023/01/14 04:24:49;;;;;;;12.77;6.95;;;5.50;69.40;;;;;;4937668;28;114373;-84
2023/01/14 04:27:17;;;;;;;11.98;6.78;;;5.50;69.40;;;;;;4928198;28;114951;-85
2023/01/14 04:29:44;;;;;;;8.95;5.25;;;5.50;69.30;;;;;;4928142;28;115705;-84
2023/01/14 04:32:11;;;;;;;9.93;5.70;;;5.50;69.20;;;;;;4939632;28;114860;-85
2023/01/14 04:34:38;;;;;;;11.75;5.22;;;5.60;69.20;;;;;;4948088;28;114697;-85
2023/01/14 04:37:07;;;;;;;9.82;5.10;;;5.50;69.20;;;;;;4930940;28;115037;-84
2023/01/14 04:39:35;;;;;;;10.32;4.70;;;5.50;69.20;;;;;;4930300;28;115122;-85
2023/01/14 04:44:49;;;;;;;8.23;5.05;;;5.60;69.10;;;;;;4933527;28;114665;-85
2023/01/14 04:47:16;;;;;;;5.93;3.80;;;5.60;69.00;;;;;;4948578;28;114668;-85
2023/01/14 04:49:43;;;;;;;7.05;4.03;;;5.60;68.90;;;;;;4947511;28;115216;-85
2023/01/14 04:52:11;;;;;;;7.00;3.60;;;5.60;68.80;;;;;;4947299;28;117920;-85
2023/01/14 04:54:38;;;;;;;7.18;3.63;;;5.70;68.70;;;;;;4947965;28;114348;-84
2023/01/14 04:57:05;;;;;;;5.80;3.28;;;5.70;68.60;;;;;;4931076;28;114648;-84
2023/01/14 04:59:32;;;;;;;6.95;3.15;;;5.70;68.70;;;;;;4929594;28;115038;-85
2023/01/14 05:02:00;;;;;;;6.57;3.65;;;5.70;68.60;;;;;;4946871;28;114845;-85
2023/01/14 05:04:27;;;;;;;5.95;3.13;;;5.70;68.60;;;;;;4930859;28;114764;-85
2023/01/14 05:06:54;;;;;;;6.07;3.30;;;5.70;68.60;;;;;;4947376;28;114419;-85
2023/01/14 05:09:22;;;;;;;4.50;2.78;;;5.80;68.40;;;;;;4929783;28;115885;-86
2023/01/14 05:11:49;;;;;;;7.70;3.90;;;5.80;68.20;;;;;;4911618;28;115693;-85
2023/01/14 05:14:16;;;;;;;4.65;2.50;;;5.80;68.30;;;;;;4926998;28;114685;-84
2023/01/14 05:16:43;;;;;;;6.10;2.70;;;5.80;68.20;;;;;;4944826;28;114704;-85
2023/01/14 05:19:11;;;;;;;7.85;3.00;;;5.90;68.10;;;;;;4923433;28;115108;-83
2023/01/14 05:21:38;;;;;;;5.70;3.05;;;5.90;68.00;;;;;;4925060;28;115307;-84
2023/01/14 05:24:05;;;;;;;8.48;3.35;;;5.90;67.90;;;;;;4947588;28;114473;-85
2023/01/14 05:26:32;;;;;;;7.78;3.38;;;5.90;67.80;;;;;;4929939;28;114703;-84
2023/01/14 05:29:00;;;;;;;7.60;3.38;;;5.90;67.90;;;;;;4946494;28;115129;-84
2023/01/14 05:31:27;;;;;;;8.43;2.80;;;5.90;67.80;;;;;;4929192;28;115002;-85
2023/01/14 05:33:54;;;;;;;5.05;2.55;;;5.90;67.80;;;;;;4920945;28;114367;-84
2023/01/14 05:36:21;;;;;;;5.20;2.88;;;5.90;67.90;;;;;;4928241;28;114589;-84
2023/01/14 05:38:49;;;;;;;5.05;2.40;;;5.90;67.70;;;;;;4943087;28;115171;-85
2023/01/14 05:41:16;;;;;;;5.43;3.15;;;5.90;67.70;;;;;;4946104;28;114668;-85
2023/01/14 05:46:29;;;;;;;7.55;2.85;;;5.90;67.30;;;;;;4946531;28;114888;-84
2023/01/14 05:48:57;;;;;;;5.65;2.35;;;5.80;67.70;;;;;;4928322;28;115371;-84
2023/01/14 05:51:24;;;;;;;4.88;2.03;;;5.90;67.50;;;;;;4909051;28;118518;-84
2023/01/14 05:53:51;;;;;;;4.47;2.15;;;5.90;67.50;;;;;;4917840;28;115549;-84
2023/01/14 05:56:19;;;;;;;6.35;2.17;;;5.90;67.50;;;;;;4913481;28;114909;-84
2023/01/14 05:58:46;;;;;;;5.90;2.13;;;5.90;67.50;;;;;;4913051;28;115372;-84
2023/01/14 06:07:02;;;;;;;;;;;6.00;67.30;;;;;;4931837;28;114337;-85
2023/01/14 06:09:29;;;;;;;6.13;1.90;;;5.90;67.50;;;;;;4945131;28;116651;-84
2023/01/14 06:12:03;;;;;;;4.75;2.10;;;5.90;67.70;;;;;;4942990;28;119740;-85
2023/01/14 06:14:32;;;;;;;6.97;2.13;;;5.90;67.60;;;;;;4934539;28;114407;-85
2023/01/14 06:17:04;;;;;;;6.03;2.20;;;6.00;67.40;;;;;;4911724;28;116246;-85
2023/01/14 06:19:32;;;;;;;5.90;2.10;;;6.00;67.20;;;;;;4946411;28;115070;-85
2023/01/14 06:22:00;;;;;;;6.53;2.10;;;6.00;67.10;;;;;;4928682;28;114801;-85
2023/01/14 06:24:28;;;;;;;7.75;1.90;;;6.00;67.00;;;;;;4947312;28;114641;-86
2023/01/14 06:26:55;;;;;;;4.90;1.80;;;6.00;67.10;;;;;;4945362;28;114673;-84
2023/01/14 06:29:22;;;;;;;5.03;2.25;;;6.10;67.00;;;;;;4945729;28;115094;-84
2023/01/14 06:31:50;;;;;;;4.38;1.90;;;6.10;67.00;;;;;;4908817;28;114719;-82
2023/01/14 06:34:21;;;;;;;6.28;2.28;;;6.10;66.70;;;;;;4945631;28;114901;-83
2023/01/14 06:36:51;;;;;;;5.93;2.00;;;6.10;66.60;;;;;;4946458;28;114910;-83
2023/01/14 06:39:18;;;;;;;5.28;2.00;;;6.10;66.70;;;;;;4944484;28;115159;-84
2023/01/14 06:41:45;;;;;;;5.05;2.20;;;6.10;66.60;;;;;;4945178;28;114881;-84
2023/01/14 06:44:12;;;;;;;9.25;2.42;;;6.10;66.70;;;;;;4945766;28;114823;-83
2023/01/14 06:46:40;;;;;;;4.85;2.08;;;6.10;66.90;;;;;;4946537;28;114697;-83
2023/01/14 06:49:08;;;;;;;5.85;2.70;;;6.10;66.70;;;;;;4901320;28;118696;-84
2023/01/14 06:51:35;;;;;;;9.02;2.58;;;6.10;66.60;;;;;;4925578;28;114621;-83
2023/01/14 06:54:03;;;;;;;6.28;2.53;;;6.10;66.60;;;;;;4923994;28;114891;-84
2023/01/14 06:56:30;;;;;;;4.28;2.40;;;6.10;66.60;;;;;;4908708;28;114638;-84
2023/01/14 06:58:57;;;;;;;7.47;2.83;;;6.20;66.60;;;;;;4915059;28;115164;-83
2023/01/14 07:01:24;;;;;;;5.25;2.08;;;6.10;66.60;;;;;;4944798;28;116544;-83
2023/01/14 07:03:52;;;;;;;7.93;2.47;;;6.10;66.60;;;;;;4945863;28;114761;-83
2023/01/14 07:06:19;;;;;;;5.82;2.85;;;6.10;66.60;;;;;;4922727;28;115620;-84
2023/01/14 07:08:47;;;;;;;4.82;2.33;;;6.10;66.50;;;;;;4915285;28;115566;-84
2023/01/14 07:11:14;;;;;;;7.40;2.63;;;6.10;66.60;;;;;;4945330;28;115445;-84
2023/01/14 07:13:41;;;;;;;6.25;2.83;;;6.10;66.60;;;;;;4946167;28;114553;-83
2023/01/14 07:16:08;;;;;;;7.18;2.88;;;6.10;66.50;;;;;;4930322;28;114540;-84
2023/01/14 07:18:36;;;;;;;6.65;2.90;;;6.00;66.60;;;;;;4925643;28;115813;-83
2023/01/14 07:21:04;;;;;;;7.60;2.80;;;6.10;66.60;;;;;;4926193;28;114891;-84
2023/01/14 07:23:31;;;;;;;6.85;3.47;;;6.10;66.70;;;;;;4937058;28;114703;-84
2023/01/14 07:25:59;;;;;;;7.28;3.22;;;6.10;67.10;;;;;;4942555;28;116659;-84
2023/01/14 07:28:29;;;;;;;7.30;2.75;;;6.10;66.70;;;;;;4931384;28;115161;-84
2023/01/14 07:30:57;;;;;;;6.65;2.90;;;6.20;66.80;;;;;;4927557;28;116078;-84
2023/01/14 07:33:27;;;;;;;7.20;2.90;;;6.20;66.90;;;;;;4928874;28;114496;-83
2023/01/14 07:35:57;;;;;;;8.20;2.78;;;6.20;66.70;;;;;;4928844;28;114460;-83
2023/01/14 07:38:24;;;;;;;7.47;2.55;;;6.20;66.70;;;;;;4944805;28;118585;-83
2023/01/14 07:40:52;;;;;;;6.55;2.85;;;6.20;66.60;;;;;;4935566;28;114559;-83
2023/01/14 07:43:20;;;;;;;7.53;3.67;;;6.20;66.80;;;;;;4914913;28;114741;-84
2023/01/14 07:45:50;;;;;;;8.02;3.17;;;6.20;66.50;;;;;;4927234;28;114444;-84
2023/01/14 07:48:20;;;;;;;9.32;3.88;;;6.20;66.30;;;;;;4890835;28;119028;-85
2023/01/14 07:50:48;;;;;;;7.95;2.75;;;6.20;66.50;;;;;;4934518;28;115875;-85
2023/01/14 07:53:15;;;;;;;5.90;2.78;;;6.20;66.50;;;;;;4944178;28;114364;-85
2023/01/14 07:55:42;;;;;;;7.60;2.72;;;6.20;66.20;;;;;;4922751;28;114898;-85
2023/01/14 07:58:14;;;;;;;7.50;3.17;;;6.20;66.20;;;;;;4923207;28;115847;-84
2023/01/14 08:00:41;;;;;;;9.30;3.35;;;6.20;66.10;;;;;;4922827;28;115277;-85
2023/01/14 08:03:08;;;;;;;8.55;2.92;;;6.20;66.10;;;;;;4924281;28;114675;-84
2023/01/14 08:05:36;;;;;;;7.65;2.80;;;6.20;66.10;;;;;;4944959;28;114577;-84
2023/01/14 08:08:04;;;;;;;6.00;2.80;;;6.20;66.10;;;;;;4922554;28;115546;-85
2023/01/14 08:10:31;;;;;;;9.48;2.83;;;6.20;66.10;;;;;;4908493;28;116420;-85
2023/01/14 08:12:59;;;;;;;5.97;2.50;;;6.20;65.80;;;;;;4909618;28;114549;-85
2023/01/14 08:15:26;;;;;;;4.85;2.47;;;6.20;65.60;;;;;;4916513;28;114509;-85
2023/01/14 08:17:54;;;;;;;5.05;2.38;;;6.30;65.70;;;;;;4914599;28;115104;-85
2023/01/14 08:20:22;;;;;;;7.18;2.85;;;6.40;65.40;;;;;;4936498;28;114732;-82
2023/01/14 08:22:50;;;;;;;8.48;3.80;;;6.50;65.00;;;;;;4915930;28;114461;-82
2023/01/14 08:25:17;;;;;;;10.57;3.85;;;6.60;64.70;;;;;;4931272;28;114777;-82
2023/01/14 08:27:44;;;;;;;8.52;4.03;;;6.60;64.70;;;;;;4924650;28;115780;-82
2023/01/14 08:30:12;;;;;;;9.95;4.63;;;6.70;64.70;;;;;;4908866;28;115148;-81
2023/01/14 08:32:39;;;;;;;8.40;3.90;;;6.70;64.50;;;;;;4920987;28;114822;-82
2023/01/14 08:35:07;;;;;;;9.20;4.07;;;6.70;64.40;;;;;;4926124;28;114635;-84
2023/01/14 08:37:37;;;;;;;9.07;4.53;;;6.70;64.50;;;;;;4903659;28;115431;-82
2023/01/14 08:40:05;;;;;;;9.43;4.00;;;6.70;64.30;;;;;;4919932;28;118574;-83
2023/01/14 08:42:33;;;;;;;9.52;4.32;;;6.80;64.10;;;;;;4929862;28;115885;-82
2023/01/14 08:45:00;;;;;;;8.55;3.85;;;6.90;64.00;;;;;;4929368;28;114569;-82
2023/01/14 08:47:30;;;;;;;8.82;3.92;;;7.00;64.00;;;;;;4938319;28;116265;-83
2023/01/14 08:49:57;;;;;;;7.88;2.90;;;7.20;63.50;;;;;;4918744;28;115176;-83
2023/01/14 08:52:25;;;;;;;6.82;2.60;;;7.20;63.50;;;;;;4937715;28;114396;-83
2023/01/14 08:54:52;;;;;;;5.53;2.10;;;7.30;63.40;;;;;;4934364;28;114813;-83
2023/01/14 08:57:19;;;;;;;6.72;2.00;;;7.40;63.00;;;;;;4920035;28;115237;-84
2023/01/14 08:59:47;;;;;;;7.22;2.10;;;7.30;62.70;;;;;;4938991;28;114570;-83
2023/01/14 09:02:15;;;;;;;6.80;2.08;;;7.30;62.60;;;;;;4911847;28;114860;-85
2023/01/14 09:04:42;;;;;;;7.10;2.38;;;7.20;62.50;;;;;;4922003;28;114544;-84
2023/01/14 09:18:16;;;;;;;4.90;2.15;;;7.10;63.00;;;;;;4917599;28;115382;-85
2023/01/14 09:20:43;;;;;;;6.93;2.22;;;7.10;63.30;;;;;;4907918;28;116908;-85
2023/01/14 09:23:10;;;;;;;7.03;2.17;;;7.10;63.00;;;;;;4928894;28;114642;-84
2023/01/14 09:25:38;;;;;;;6.65;2.17;;;7.10;62.90;;;;;;4920340;28;114736;-84
2023/01/14 09:28:05;;;;;;;4.78;1.85;;;7.20;62.90;;;;;;4904347;28;115322;-84
2023/01/14 09:30:32;;;;;;;8.02;2.28;;;7.20;62.80;;;;;;4948794;28;114491;-85
2023/01/14 09:33:00;;;;;;;7.47;2.35;;;7.20;62.80;;;;;;4938320;28;114431;-84
2023/01/14 09:35:27;;;;;;;7.90;2.63;;;7.20;62.70;;;;;;4948078;28;116850;-85
2023/01/14 09:37:55;;;;;;;7.32;2.28;;;7.20;62.80;;;;;;4901301;28;117413;-85
2023/01/14 09:40:22;;;;;;;8.55;2.65;;;7.30;62.80;;;;;;4932259;28;114555;-84
2023/01/14 09:42:50;;;;;;;6.85;2.20;;;7.30;62.80;;;;;;4912682;28;114983;-83
2023/01/14 09:45:35;;;;;;;6.10;2.20;;;7.50;62.60;;;;;;4924989;28;114703;-86
2023/01/14 09:48:30;;;;;;;5.82;2.40;;;7.60;62.00;;;;;;4914965;28;117407;-86
2023/01/14 09:51:26;;;;;;;5.55;1.98;;;7.50;61.80;;;;;;4882337;28;119755;-86
2023/01/14 09:54:29;;;;;;;5.55;1.90;;;7.60;61.80;;;;;;4928032;28;116717;-83
2023/01/14 09:57:02;;;;;;;7.38;2.40;;;7.60;61.90;;;;;;4906867;28;114573;-85
2023/01/14 09:59:49;;;;;;;6.32;2.13;;;7.60;61.90;;;;;;4908779;28;115194;-84
2023/01/14 10:02:32;;;;;;;5.05;2.17;;;7.70;61.30;;;;;;4911937;28;115643;-85
2023/01/14 10:05:22;;;;;;;9.10;1.88;;;7.70;61.30;;;;;;4897660;28;114596;-85
2023/01/14 10:07:49;;;;;;;8.43;2.28;;;7.70;61.30;;;;;;4891150;28;114615;-83
2023/01/14 10:10:37;;;;;;;7.30;2.38;;;7.70;61.10;;;;;;4906360;28;115106;-85
2023/01/14 10:13:12;;;;;;;6.43;2.17;;;7.80;60.70;;;;;;4891566;28;115289;-85
2023/01/14 10:15:58;;;;;;;5.82;1.92;;;7.90;60.80;;;;;;4894240;28;114471;-83
2023/01/14 10:18:35;;;;;;;6.20;2.63;;;7.90;60.60;;;;;;4905781;28;114528;-84
2023/01/14 10:21:13;;;;;;;7.10;3.78;;;8.00;60.30;;;;;;4876497;28;115500;-84
2023/01/14 10:23:42;;;;;;;4.75;2.03;;;8.10;60.30;;;;;;4879581;28;114826;-85
2023/01/14 10:26:17;;;;;;;6.20;2.03;;;8.10;60.00;;;;;;4892755;28;114444;-84
2023/01/14 10:28:49;;;;;;;5.32;2.80;;;8.20;59.90;;;;;;4909848;28;117448;-84
2023/01/14 10:31:30;;;;;;;5.72;2.80;;;8.20;60.00;;;;;;4920507;28;115722;-85
2023/01/14 10:33:57;;;;;;;6.07;2.50;;;8.30;59.40;;;;;;4905057;28;114772;-85
2023/01/14 10:36:29;;;;;;;5.53;2.17;;;8.30;59.50;;;;;;4921397;28;114544;-85
2023/01/14 10:39:00;;;;;;;7.38;1.80;;;8.30;59.20;;;;;;4928627;28;114605;-84
2023/01/14 10:44:33;;;;;;;7.55;2.13;;;8.40;59.10;;;;;;4931571;28;114775;-85
2023/01/14 10:47:30;;;;;;;7.97;2.35;;;8.50;58.70;;;;;;4929660;28;114686;-85
2023/01/14 10:50:23;;;;;;;8.73;1.73;;;8.60;58.60;;;;;;4913087;28;114479;-84
2023/01/14 10:52:52;;;;;;;5.13;1.88;;;8.60;58.40;;;;;;4931203;28;115218;-84
2023/01/14 10:55:24;;;;;;;6.35;2.20;;;8.60;58.30;;;;;;4928851;28;118523;-85
2023/01/14 10:58:13;;;;;;;5.63;1.85;;;8.70;57.90;;;;;;4899678;28;114640;-83
2023/01/14 11:00:50;;;;;;;6.20;2.28;;;8.70;57.50;;;;;;4914042;28;114535;-84
2023/01/14 11:03:27;;;;;;;6.05;2.10;;;8.60;57.30;;;;;;4929085;28;115116;-84
2023/01/14 11:05:59;;;;;;;7.07;2.17;;;8.70;57.60;;;;;;4911161;28;114693;-84
2023/01/14 11:08:50;;;;;;;;;;;8.70;57.60;;;;;;4898669;28;114838;-84
2023/01/14 11:11:38;;;;;;;7.05;2.10;;;8.70;58.50;;;;;;4915856;28;114999;-83
2023/01/14 11:14:28;;;;;;;5.55;2.13;;;8.70;57.40;;;;;;4931578;28;115287;-83
2023/01/14 11:16:55;;;;;;;6.50;1.90;;;8.70;57.00;;;;;;4942403;28;114614;-83
2023/01/14 11:19:27;;;;;;;6.10;1.95;;;8.70;57.30;;;;;;4947853;28;114914;-84
2023/01/14 11:21:57;;;;;;;6.70;2.08;;;8.80;57.00;;;;;;4929545;28;114718;-83
2023/01/14 11:24:38;;;;;;;5.85;2.10;;;8.80;56.60;;;;;;4910812;28;115624;-84
2023/01/14 11:27:17;;;;;;;6.93;2.25;;;8.80;56.30;;;;;;4927238;28;116979;-83
2023/01/14 11:29:56;;;;;;;7.07;2.35;;;8.80;56.50;;;;;;4924902;28;114608;-84
2023/01/14 11:32:33;;;;;;;6.18;2.20;;;8.90;56.20;;;;;;4893467;28;114495;-84
2023/01/14 11:35:02;;;;;;;11.68;2.03;;;8.90;56.20;;;;;;4908056;28;115192;-84
2023/01/14 11:37:41;;;;;;;8.00;2.97;;;8.90;56.20;;;;;;4905512;28;115335;-83
2023/01/14 11:43:25;;;;;;;8.68;3.90;;;9.00;56.00;;;;;;4911220;28;114732;-84
2023/01/14 11:46:10;;;;;;;6.00;2.00;;;8.90;56.00;;;;;;4908142;28;115192;-84
2023/01/14 11:48:38;;;;;;;4.45;1.80;;;9.00;55.60;;;;;;4910676;28;114853;-84
2023/01/14 11:51:19;;;;;;;4.82;1.70;;;8.90;55.40;;;;;;4912163;28;114571;-83
2023/01/14 11:53:51;;;;;;;5.57;2.60;;;8.90;55.60;;;;;;4912636;28;114770;-84
2023/01/14 11:56:35;;;;;;;8.73;2.33;;;8.90;55.90;;;;;;4927056;28;115734;-83
2023/01/14 11:59:28;;;;;;;5.25;1.85;;;9.00;55.60;;;;;;4911824;28;115054;-87
2023/01/14 12:02:00;;;;;;;4.68;1.70;;;9.00;55.40;;;;;;4897390;28;114912;-84
2023/01/14 12:04:48;;;;;;;8.05;2.17;;;9.10;55.30;;;;;;4909591;28;115369;-84
2023/01/14 12:07:44;;;;;;;10.20;4.60;;;9.20;54.90;;;;;;4892555;28;115340;-84
2023/01/14 12:10:26;;;;;;;7.15;3.67;;;9.10;54.90;;;;;;4909301;28;115507;-83
2023/01/14 12:19:19;;;;;;;4.97;2.70;;;9.00;54.20;;;;;;4926231;28;116365;-84
2023/01/14 12:21:57;;;;;;;;;;;9.00;54.30;;;;;;4924367;28;114630;-84
2023/01/14 12:24:28;;;;;;;6.32;3.60;;;8.90;55.70;;;;;;4913236;28;114737;-83
2023/01/14 12:26:55;;;;;;;8.05;4.45;;;8.80;55.20;;;;;;4910719;28;114649;-83
2023/01/14 12:29:31;;;;;;;13.32;7.55;;;8.80;55.30;;;;;;4910759;28;115673;-84
2023/01/14 12:32:23;;;;;;;9.02;4.80;;;8.90;55.10;;;;;;4908845;28;114928;-83
2023/01/14 12:34:53;;;;;;;9.15;4.32;;;8.90;54.70;;;;;;4926331;28;117653;-83
2023/01/14 12:37:26;;;;;;;7.18;2.70;;;8.90;54.70;;;;;;4911388;28;114806;-83
2023/01/14 12:45:47;;;;;;;9.82;3.90;;;8.80;53.90;;;;;;4913461;28;114449;-83
2023/01/14 12:48:20;;;;;;;4.95;3.13;;;8.80;54.00;;;;;;4911283;28;114527;-83
2023/01/14 12:50:58;;;;;;;5.97;3.92;;;8.70;53.70;;;;;;4893571;28;116335;-83
2023/01/14 12:53:30;;;;;;;6.55;3.10;;;8.70;53.60;;;;;;4909944;28;114770;-84
2023/01/14 12:55:59;;;;;;;5.78;2.88;;;8.70;53.90;;;;;;4905913;28;114674;-84
2023/01/14 12:58:35;;;;;;;7.40;3.80;;;8.70;53.90;;;;;;4891410;28;115240;-85
2023/01/14 13:01:06;;;;;;;7.63;3.72;;;8.70;53.40;;;;;;4893218;28;118835;-84
2023/01/14 13:04:03;;;;;;;9.25;4.65;;;8.70;53.80;;;;;;4898850;28;115608;-84
2023/01/14 13:06:36;;;;;;;5.28;3.03;;;8.70;53.80;;;;;;4921405;28;114708;-82
2023/01/14 13:09:07;;;;;;;6.80;3.00;;;8.70;53.90;;;;;;4897628;28;118761;-84
2023/01/14 13:11:43;;;;;;;6.28;3.20;;;8.60;54.00;;;;;;4908647;28;115187;-83
2023/01/14 13:14:36;;;;;;;6.90;3.05;;;8.60;53.60;;;;;;4893290;28;116922;-84
2023/01/14 13:17:32;;;;;;;5.95;2.67;;;8.60;53.70;;;;;;4926249;28;114867;-84
2023/01/14 13:20:18;;;;;;;4.60;2.30;;;8.50;53.90;;;;;;4909241;28;114497;-84
2023/01/14 13:22:50;;;;;;;5.35;3.20;;;8.40;54.00;;;;;;4925271;28;116695;-84
2023/01/14 13:25:37;;;;;;;5.57;3.05;;;8.30;54.30;;;;;;4890355;28;115907;-83
2023/01/14 13:28:11;;;;;;;8.15;3.47;;;8.30;54.20;;;;;;4896659;28;115184;-84
2023/01/14 13:30:45;;;;;;;8.35;4.25;;;8.30;54.50;;;;;;4909823;28;118132;-84
2023/01/14 13:33:28;;;;;;;;;;;8.20;54.80;;;;;;4923819;28;115147;-83
2023/01/14 13:36:13;;;;;;;7.00;3.17;;;8.20;55.40;;;;;;4925571;28;114802;-84
2023/01/14 13:38:48;;;;;;;5.78;3.20;;;8.10;55.30;;;;;;4925615;28;114805;-82
2023/01/14 13:41:39;;;;;;;8.15;3.72;;;8.20;55.40;;;;;;4908644;28;114861;-83
2023/01/14 13:44:28;;;;;;;9.13;5.00;;;8.20;55.20;;;;;;4904562;28;117342;-83
2023/01/14 13:47:03;;;;;;;8.57;4.78;;;8.20;55.30;;;;;;4924102;28;116310;-83
2023/01/14 13:49:30;;;;;;;;;;;8.20;55.40;;;;;;4909765;28;114652;-84
2023/01/14 13:52:18;;;;;;;12.80;7.05;;;8.10;55.80;;;;;;4924453;28;114807;-83
2023/01/14 13:54:45;;;;;;;18.60;11.55;;;8.10;55.90;;;;;;4888650;28;115357;-83
2023/01/14 13:57:23;;;;;;;23.13;13.70;;;8.00;56.30;;;;;;4899760;28;115849;-83
2023/01/14 13:59:54;;;;;;;17.83;9.50;;;8.00;56.10;;;;;;4926429;28;114822;-83
2023/01/14 14:02:48;;;;;;;15.95;9.70;;;8.00;56.30;;;;;;4921643;28;114808;-83